Time;durP1;ratioP1;P1;durP2;ratioP2;P2;SDS_P1;SDS_P2;PMS_P1;PMS_P2;Temp;Humidity;BMP_temperature;BMP_pressure;BME280_temperature;BME280_humidity;BME280_pressure;Samples;Min_cycle;Max_cycle;Signal;HPM_P1;HPM_P2
2021/07/16 00:00:40;;;;;;;9.20;3.45;;;717.40;1254.40;;;;;;5095366;28;20028;-52
2021/07/16 00:03:06;;;;;;;11.68;4.22;;;717.40;1254.40;;;;;;5095533;28;20027;-56
2021/07/16 00:05:31;;;;;;;11.73;4.35;;;717.40;1254.40;;;;;;5094853;28;20383;-52
2021/07/16 00:07:57;;;;;;;11.90;4.30;;;717.40;1254.40;;;;;;5095080;28;20043;-52
2021/07/16 00:10:24;;;;;;;11.80;3.80;;;717.30;1254.40;;;;;;5094859;28;20027;-58
2021/07/16 00:12:51;;;;;;;15.10;4.18;;;717.20;1254.40;;;;;;5094665;28;20437;-59
2021/07/16 00:15:19;;;;;;;17.27;4.63;;;717.20;1254.40;;;;;;5094823;28;20153;-56
2021/07/16 00:17:45;;;;;;;13.70;4.10;;;717.20;1280.00;;;;;;5095562;28;20032;-58
2021/07/16 00:20:11;;;;;;;15.40;4.13;;;717.20;1254.40;;;;;;5095769;28;20049;-52
2021/07/16 00:22:37;;;;;;;14.52;3.58;;;717.20;1280.00;;;;;;5095020;28;20024;-52
2021/07/16 00:25:06;;;;;;;12.50;4.75;;;717.20;1280.00;;;;;;5094830;28;20028;-59
2021/07/16 00:27:32;;;;;;;14.77;4.85;;;717.20;1280.00;;;;;;5094684;28;20044;-59
2021/07/16 00:29:58;;;;;;;14.32;4.72;;;717.20;1280.00;;;;;;5094913;28;20544;-58
2021/07/16 00:32:24;;;;;;;14.98;3.78;;;717.10;1280.00;;;;;;5095258;28;20059;-59
2021/07/16 00:34:50;;;;;;;13.38;4.20;;;717.10;1280.00;;;;;;5095179;28;20082;-59
2021/07/16 00:37:16;;;;;;;16.40;4.40;;;717.20;1280.00;;;;;;5095155;28;20020;-54
2021/07/16 00:39:42;;;;;;;9.13;4.45;;;717.10;1280.00;;;;;;5095052;28;20073;-58
2021/07/16 00:42:08;;;;;;;11.70;4.30;;;717.10;1280.00;;;;;;5094987;28;20020;-59
2021/07/16 00:44:36;;;;;;;8.80;4.50;;;717.10;1280.00;;;;;;5095279;28;20028;-59
2021/07/16 00:47:04;;;;;;;11.85;4.78;;;717.10;1280.00;;;;;;5094903;28;20042;-59
2021/07/16 00:49:30;;;;;;;12.48;4.60;;;717.10;1280.00;;;;;;5094991;28;20028;-59
2021/07/16 00:51:57;;;;;;;12.10;4.32;;;717.00;1280.00;;;;;;5094806;28;20057;-54
2021/07/16 00:54:22;;;;;;;11.50;4.30;;;717.00;1280.00;;;;;;5095174;28;20039;-59
2021/07/16 00:56:49;;;;;;;11.70;4.50;;;717.00;1305.60;;;;;;5095011;28;20020;-57
2021/07/16 00:59:16;;;;;;;15.65;4.45;;;717.00;1305.60;;;;;;5094987;28;20085;-58
2021/07/16 01:01:45;;;;;;;13.80;4.97;;;717.00;1305.60;;;;;;5094616;28;20028;-58
2021/07/16 01:04:11;;;;;;;13.43;5.32;;;717.00;1305.60;;;;;;5094625;28;20484;-53
2021/07/16 01:06:37;;;;;;;9.07;4.72;;;717.00;1305.60;;;;;;5093934;28;20024;-52
2021/07/16 01:09:05;;;;;;;9.25;4.40;;;717.00;1305.60;;;;;;5094467;28;20473;-59
2021/07/16 01:11:32;;;;;;;19.55;4.95;;;717.00;1305.60;;;;;;5094628;28;20027;-59
2021/07/16 01:13:58;;;;;;;10.82;4.55;;;716.90;1305.60;;;;;;5094668;28;20020;-58
2021/07/16 01:16:24;;;;;;;11.93;4.60;;;716.90;1305.60;;;;;;5094688;28;20487;-59
2021/07/16 01:18:50;;;;;;;11.18;4.40;;;716.90;1305.60;;;;;;5094301;28;20107;-59
2021/07/16 01:21:16;;;;;;;10.82;4.53;;;716.90;1305.60;;;;;;5093034;28;20392;-55
2021/07/16 01:23:42;;;;;;;13.10;5.57;;;716.90;1305.60;;;;;;5094216;28;20020;-59
2021/07/16 01:26:09;;;;;;;16.30;4.57;;;716.90;1305.60;;;;;;5094206;28;20468;-53
2021/07/16 01:28:36;;;;;;;12.43;4.80;;;716.90;1305.60;;;;;;5094399;28;20040;-59
2021/07/16 01:31:03;;;;;;;12.70;4.50;;;716.90;1305.60;;;;;;5094774;28;20020;-59
2021/07/16 01:33:29;;;;;;;7.35;4.07;;;716.90;1305.60;;;;;;5094372;28;20027;-59
2021/07/16 01:35:55;;;;;;;12.32;4.25;;;716.90;1331.20;;;;;;5094896;28;20103;-59
2021/07/16 01:38:21;;;;;;;11.93;4.43;;;716.90;1331.20;;;;;;5093945;28;20072;-54
2021/07/16 01:40:47;;;;;;;11.52;4.15;;;716.90;1331.20;;;;;;5093983;28;20028;-52
2021/07/16 01:43:14;;;;;;;11.57;4.85;;;716.80;1331.20;;;;;;5094266;28;20434;-58
2021/07/16 01:45:42;;;;;;;11.80;4.78;;;716.80;1331.20;;;;;;5093863;28;20024;-59
2021/07/16 01:48:13;;;;;;;10.63;4.80;;;716.80;1331.20;;;;;;5094090;28;20039;-58
2021/07/16 01:50:42;;;;;;;11.02;4.78;;;716.80;1331.20;;;;;;5094066;28;20380;-59
2021/07/16 01:53:10;;;;;;;15.18;4.55;;;716.80;1331.20;;;;;;5094075;28;20028;-59
2021/07/16 01:55:38;;;;;;;10.07;4.32;;;716.80;1305.60;;;;;;5094068;28;20031;-60
2021/07/16 01:58:09;;;;;;;21.83;5.30;;;716.80;1305.60;;;;;;5094054;28;20028;-59
2021/07/16 02:00:38;;;;;;;14.55;4.40;;;716.80;1331.20;;;;;;5094043;28;20528;-59
2021/07/16 02:03:07;;;;;;;14.02;4.60;;;716.80;1331.20;;;;;;5093645;28;20500;-51
2021/07/16 02:05:34;;;;;;;13.48;4.85;;;692.10;1305.60;;;;;;5093943;28;20056;-59
2021/07/16 02:08:04;;;;;;;7.47;3.90;;;692.10;1305.60;;;;;;5093491;28;20123;-58
2021/07/16 02:10:30;;;;;;;14.20;4.93;;;692.10;1305.60;;;;;;5093870;28;20099;-59
2021/07/16 02:12:57;;;;;;;15.40;4.57;;;692.00;1331.20;;;;;;5093593;28;20039;-51
2021/07/16 02:15:26;;;;;;;9.90;4.82;;;692.00;1331.20;;;;;;5093548;28;20021;-51
2021/07/16 02:17:52;;;;;;;14.27;5.03;;;692.00;1331.20;;;;;;5093831;28;20022;-51
2021/07/16 02:20:28;;;;;;;13.27;4.90;;;691.90;1356.80;;;;;;5097569;28;20074;-52
2021/07/16 02:22:56;;;;;;;12.45;4.80;;;691.90;1356.80;;;;;;5097704;28;20020;-59
2021/07/16 02:25:23;;;;;;;21.80;5.70;;;691.90;1382.40;;;;;;5097452;28;20031;-51
2021/07/16 02:27:54;;;;;;;14.18;5.22;;;691.80;1408.00;;;;;;5097553;28;20042;-50
2021/07/16 02:30:23;;;;;;;8.27;4.70;;;691.80;1408.00;;;;;;5097587;28;20024;-51
2021/07/16 02:32:49;;;;;;;13.48;5.28;;;691.80;1408.00;;;;;;5097528;28;20056;-51
2021/07/16 02:35:15;;;;;;;11.70;5.70;;;691.80;1433.60;;;;;;5097485;28;20051;-55
2021/07/16 02:37:41;;;;;;;12.70;5.32;;;691.50;1459.20;;;;;;5097784;28;20388;-51
2021/07/16 02:40:09;;;;;;;9.85;5.22;;;691.60;1433.60;;;;;;5097112;28;20024;-51
2021/07/16 02:42:35;;;;;;;12.23;5.85;;;691.60;1459.20;;;;;;5097332;28;20031;-51
2021/07/16 02:45:09;;;;;;;9.32;5.80;;;691.60;1433.60;;;;;;5097589;28;20077;-51
2021/07/16 02:47:39;;;;;;;13.10;5.60;;;691.60;1459.20;;;;;;5097519;28;20357;-58
2021/07/16 02:50:11;;;;;;;10.80;5.32;;;691.60;1433.60;;;;;;5097212;28;20024;-51
2021/07/16 02:52:36;;;;;;;9.75;5.30;;;691.60;1433.60;;;;;;5097398;28;20031;-51
2021/07/16 02:55:04;;;;;;;13.95;5.47;;;691.50;1459.20;;;;;;5097451;28;20383;-51
2021/07/16 02:57:31;;;;;;;12.75;5.63;;;691.60;1459.20;;;;;;5097043;28;20028;-51
2021/07/16 02:59:57;;;;;;;13.93;6.25;;;691.50;1433.60;;;;;;5097018;28;20024;-51
2021/07/16 03:02:30;;;;;;;11.23;5.25;;;691.50;1459.20;;;;;;5097017;28;20024;-50
2021/07/16 03:04:58;;;;;;;16.02;5.75;;;691.50;1484.80;;;;;;5096930;28;20056;-56
2021/07/16 03:07:24;;;;;;;16.38;4.88;;;691.50;1459.20;;;;;;5097063;28;20066;-51
2021/07/16 03:09:50;;;;;;;11.05;5.20;;;691.50;1459.20;;;;;;5097059;28;20027;-51
2021/07/16 03:12:16;;;;;;;13.93;5.28;;;691.40;1484.80;;;;;;5096712;28;20028;-51
2021/07/16 03:14:42;;;;;;;11.38;5.05;;;691.40;1510.40;;;;;;5096802;28;20020;-51
2021/07/16 03:17:08;;;;;;;17.65;5.50;;;691.30;1484.80;;;;;;5096622;28;20016;-50
2021/07/16 03:19:35;;;;;;;9.57;5.57;;;691.40;1459.20;;;;;;5096907;28;20036;-58
2021/07/16 03:22:01;;;;;;;12.52;5.32;;;691.40;1484.80;;;;;;5096598;28;20024;-51
2021/07/16 03:24:28;;;;;;;15.85;5.82;;;691.40;1459.20;;;;;;5096519;28;20052;-51
2021/07/16 03:26:54;;;;;;;12.95;6.30;;;691.40;1459.20;;;;;;5096255;28;20052;-51
2021/07/16 03:29:20;;;;;;;13.85;7.03;;;691.40;1459.20;;;;;;5095983;28;20032;-53
2021/07/16 03:31:46;;;;;;;13.80;6.18;;;691.40;1459.20;;;;;;5096408;28;20028;-52
2021/07/16 03:34:12;;;;;;;16.05;6.60;;;691.40;1459.20;;;;;;5096409;28;20028;-51
2021/07/16 03:36:38;;;;;;;13.48;6.55;;;691.40;1459.20;;;;;;5096450;28;20069;-52
2021/07/16 03:39:04;;;;;;;13.20;6.47;;;691.40;1459.20;;;;;;5096272;28;20077;-52
2021/07/16 03:41:30;;;;;;;18.33;7.45;;;691.40;1459.20;;;;;;5096154;28;20036;-52
2021/07/16 03:43:56;;;;;;;15.02;6.38;;;691.40;1459.20;;;;;;5096465;28;20024;-58
2021/07/16 03:46:27;;;;;;;19.70;7.43;;;691.30;1484.80;;;;;;5096140;28;20377;-59
2021/07/16 03:48:54;;;;;;;15.43;6.40;;;691.40;1484.80;;;;;;5096106;28;20036;-59
2021/07/16 03:51:20;;;;;;;14.65;6.68;;;691.30;1484.80;;;;;;5096317;28;20020;-51
2021/07/16 03:53:46;;;;;;;20.60;6.90;;;691.40;1484.80;;;;;;5096234;28;20480;-58
2021/07/16 03:56:12;;;;;;;20.48;6.35;;;691.40;1484.80;;;;;;5096254;28;20468;-51
2021/07/16 03:58:38;;;;;;;13.88;6.78;;;691.40;1484.80;;;;;;5095858;28;20126;-52
2021/07/16 04:01:04;;;;;;;13.43;6.10;;;691.30;1510.40;;;;;;5096168;28;20024;-52
2021/07/16 04:03:30;;;;;;;10.25;6.05;;;691.30;1484.80;;;;;;5095773;28;20361;-59
2021/07/16 04:05:56;;;;;;;11.65;6.05;;;691.30;1484.80;;;;;;5095734;28;20107;-51
2021/07/16 04:08:23;;;;;;;12.23;6.45;;;691.30;1484.80;;;;;;5095914;28;20085;-59
2021/07/16 04:10:49;;;;;;;14.50;6.32;;;691.30;1484.80;;;;;;5096242;28;20024;-53
2021/07/16 04:13:15;;;;;;;14.10;6.70;;;691.30;1484.80;;;;;;5095611;28;20100;-59
2021/07/16 04:15:42;;;;;;;16.85;8.57;;;691.30;1484.80;;;;;;5095831;28;20020;-59
2021/07/16 04:18:09;;;;;;;14.88;8.43;;;691.30;1510.40;;;;;;5095485;28;20034;-58
2021/07/16 04:20:39;;;;;;;14.23;7.78;;;691.30;1536.00;;;;;;5095763;28;20020;-51
2021/07/16 04:23:06;;;;;;;15.27;8.27;;;691.30;1510.40;;;;;;5096290;28;20028;-59
2021/07/16 04:25:33;;;;;;;16.58;8.27;;;691.30;1510.40;;;;;;5095359;28;20048;-59
2021/07/16 04:28:00;;;;;;;20.92;7.75;;;691.30;1510.40;;;;;;5095243;28;20043;-53
2021/07/16 04:30:27;;;;;;;12.90;6.88;;;691.30;1510.40;;;;;;5095228;28;20028;-59
2021/07/16 04:32:55;;;;;;;16.27;7.80;;;691.30;1510.40;;;;;;5095361;28;20435;-59
2021/07/16 04:35:22;;;;;;;13.75;6.82;;;691.30;1510.40;;;;;;5095169;28;20024;-59
2021/07/16 04:37:48;;;;;;;14.00;7.45;;;691.30;1510.40;;;;;;5095981;28;20028;-57
2021/07/16 04:40:19;;;;;;;15.35;6.70;;;691.30;1536.00;;;;;;5095140;28;20059;-52
2021/07/16 04:42:46;;;;;;;13.77;7.75;;;691.30;1510.40;;;;;;5094638;28;20446;-51
2021/07/16 04:45:13;;;;;;;11.75;7.40;;;691.20;1536.00;;;;;;5094979;28;20020;-59
2021/07/16 04:47:40;;;;;;;14.15;7.63;;;691.20;1536.00;;;;;;5095156;28;20115;-53
2021/07/16 04:50:07;;;;;;;16.40;8.30;;;666.50;1561.60;;;;;;5095178;28;20035;-60
2021/07/16 04:52:44;;;;;;;16.05;8.48;;;691.20;1536.00;;;;;;5095139;28;20020;-59
2021/07/16 04:55:11;;;;;;;19.52;8.88;;;691.20;1561.60;;;;;;5094790;28;20031;-52
2021/07/16 04:57:37;;;;;;;15.85;7.78;;;691.20;1536.00;;;;;;5094682;28;20384;-53
2021/07/16 05:00:07;;;;;;;19.95;7.63;;;691.20;1536.00;;;;;;5095007;28;20021;-60
2021/07/16 05:02:33;;;;;;;17.70;7.93;;;691.30;1561.60;;;;;;5094987;28;20024;-59
2021/07/16 05:04:59;;;;;;;14.50;7.22;;;691.30;1536.00;;;;;;5094623;28;20495;-60
2021/07/16 05:07:25;;;;;;;16.30;7.22;;;691.20;1536.00;;;;;;5094461;28;20071;-60
2021/07/16 05:09:51;;;;;;;16.48;7.30;;;691.30;1510.40;;;;;;5094540;28;20469;-60
2021/07/16 05:12:17;;;;;;;16.42;7.47;;;691.30;1510.40;;;;;;5094439;28;20043;-53
2021/07/16 05:14:43;;;;;;;16.45;7.90;;;691.30;1536.00;;;;;;5094443;28;20016;-53
2021/07/16 05:17:09;;;;;;;15.43;7.55;;;691.30;1536.00;;;;;;5094351;28;20028;-52
2021/07/16 05:19:35;;;;;;;15.90;7.57;;;691.30;1536.00;;;;;;5094305;28;20024;-60
2021/07/16 05:22:01;;;;;;;15.20;7.57;;;691.30;1536.00;;;;;;5094146;28;20028;-53
2021/07/16 05:24:28;;;;;;;15.35;7.18;;;691.30;1536.00;;;;;;5094593;28;20497;-52
2021/07/16 05:26:54;;;;;;;13.55;7.50;;;691.30;1536.00;;;;;;5093948;28;20131;-51
2021/07/16 05:29:21;;;;;;;16.17;7.45;;;691.30;1561.60;;;;;;5094121;28;20047;-52
2021/07/16 05:31:47;;;;;;;16.65;7.82;;;691.30;1536.00;;;;;;5094393;28;20024;-54
2021/07/16 05:34:13;;;;;;;15.98;7.90;;;691.30;1561.60;;;;;;5094423;28;20449;-60
2021/07/16 05:36:38;;;;;;;12.00;8.00;;;691.30;1536.00;;;;;;5094131;28;20483;-60
2021/07/16 05:39:05;;;;;;;18.73;8.15;;;691.40;1536.00;;;;;;5094031;28;20043;-60
2021/07/16 05:41:32;;;;;;;15.20;8.13;;;691.40;1510.40;;;;;;5093949;28;20036;-59
2021/07/16 05:43:58;;;;;;;13.07;9.05;;;691.50;1510.40;;;;;;5093945;28;20465;-60
2021/07/16 05:46:27;;;;;;;19.05;9.00;;;691.40;1510.40;;;;;;5093897;28;20047;-60
2021/07/16 05:48:53;;;;;;;16.50;8.68;;;691.50;1510.40;;;;;;5093927;28;20119;-60
2021/07/16 05:51:19;;;;;;;17.63;10.77;;;691.60;1510.40;;;;;;5092601;28;20111;-59
2021/07/16 05:53:44;;;;;;;22.52;10.57;;;691.70;1510.40;;;;;;5093748;28;20472;-59
2021/07/16 05:56:10;;;;;;;18.25;9.20;;;691.70;1510.40;;;;;;5094012;28;20103;-60
2021/07/16 05:58:36;;;;;;;18.23;10.05;;;691.80;1510.40;;;;;;5093716;28;20027;-54
2021/07/16 06:01:02;;;;;;;19.02;10.55;;;691.70;1561.60;;;;;;5093665;28;20051;-60
2021/07/16 06:03:29;;;;;;;20.77;11.15;;;691.70;1536.00;;;;;;5093965;28;20042;-59
2021/07/16 06:05:55;;;;;;;16.02;10.05;;;691.80;1536.00;;;;;;5093923;28;20027;-60
2021/07/16 06:08:21;;;;;;;20.00;10.95;;;691.80;1561.60;;;;;;5093885;28;20028;-53
2021/07/16 06:10:46;;;;;;;20.13;10.45;;;691.70;1561.60;;;;;;5093878;28;20024;-57
2021/07/16 06:13:12;;;;;;;18.60;10.88;;;691.80;1536.00;;;;;;5093830;28;20073;-60
2021/07/16 06:15:38;;;;;;;16.30;11.30;;;691.80;1561.60;;;;;;5093544;28;20411;-52
2021/07/16 06:18:04;;;;;;;15.98;11.32;;;691.80;1536.00;;;;;;5093563;28;20020;-60
2021/07/16 06:20:30;;;;;;;19.40;11.02;;;691.90;1536.00;;;;;;5093499;28;20020;-52
2021/07/16 06:22:56;;;;;;;15.77;10.50;;;691.90;1510.40;;;;;;5093441;28;20035;-60
2021/07/16 06:25:22;;;;;;;18.20;11.23;;;692.00;1510.40;;;;;;5093354;28;20024;-60
2021/07/16 06:27:48;;;;;;;14.50;9.93;;;692.00;1561.60;;;;;;5093365;28;20048;-59
2021/07/16 06:30:15;;;;;;;15.13;9.90;;;692.10;1510.40;;;;;;5093326;28;20027;-60
2021/07/16 06:32:41;;;;;;;17.45;11.27;;;716.80;1536.00;;;;;;5093653;28;20036;-60
2021/07/16 06:35:08;;;;;;;16.58;10.85;;;716.90;1536.00;;;;;;5093323;28;20024;-60
2021/07/16 06:37:35;;;;;;;18.23;10.90;;;716.90;1536.00;;;;;;5093299;28;20523;-60
2021/07/16 06:40:02;;;;;;;18.45;10.20;;;717.00;1510.40;;;;;;5093269;28;20039;-60
2021/07/16 06:42:28;;;;;;;19.83;11.18;;;717.20;1510.40;;;;;;5093644;28;20032;-54
2021/07/16 06:44:55;;;;;;;17.80;11.00;;;717.20;1536.00;;;;;;5093292;28;20362;-59
2021/07/16 06:47:20;;;;;;;15.02;10.48;;;717.30;1510.40;;;;;;5093472;28;20032;-60
2021/07/16 06:49:47;;;;;;;14.52;9.77;;;717.40;1510.40;;;;;;5093253;28;20446;-53
2021/07/16 06:52:13;;;;;;;14.05;9.95;;;717.50;1510.40;;;;;;5093229;28;20124;-59
2021/07/16 06:54:40;;;;;;;13.98;9.65;;;717.50;1510.40;;;;;;5093474;28;20484;-60
2021/07/16 06:57:06;;;;;;;14.25;10.90;;;717.60;1510.40;;;;;;5093354;28;20035;-60
2021/07/16 06:59:32;;;;;;;14.50;10.18;;;717.70;1510.40;;;;;;5093181;28;20427;-60
2021/07/16 07:01:58;;;;;;;17.50;10.75;;;742.40;1510.40;;;;;;5093394;28;20016;-59
2021/07/16 07:04:24;;;;;;;15.57;10.35;;;742.40;1510.40;;;;;;5093831;28;20024;-58
2021/07/16 07:06:50;;;;;;;14.90;9.85;;;742.40;1510.40;;;;;;5097304;28;20073;-60
2021/07/16 07:09:17;;;;;;;17.13;10.98;;;742.50;1484.80;;;;;;5096929;28;20066;-60
2021/07/16 07:11:43;;;;;;;13.95;9.30;;;742.60;1484.80;;;;;;5097133;28;20078;-57
2021/07/16 07:14:09;;;;;;;15.20;9.55;;;742.70;1459.20;;;;;;5097057;28;20469;-59
2021/07/16 07:16:35;;;;;;;13.95;9.95;;;742.80;1459.20;;;;;;5097097;28;20361;-60
2021/07/16 07:19:02;;;;;;;14.02;9.85;;;742.90;1459.20;;;;;;5096694;28;20357;-59
2021/07/16 07:21:28;;;;;;;12.27;7.65;;;742.90;1459.20;;;;;;5096928;28;20035;-56
2021/07/16 07:23:53;;;;;;;15.20;10.43;;;743.00;1459.20;;;;;;5096900;28;20024;-60
2021/07/16 07:26:19;;;;;;;15.95;9.93;;;743.00;1459.20;;;;;;5096303;28;20044;-59
2021/07/16 07:28:45;;;;;;;17.48;9.35;;;743.00;1459.20;;;;;;5096436;28;20036;-59
2021/07/16 07:31:11;;;;;;;14.10;9.80;;;743.10;1459.20;;;;;;5096379;28;20024;-60
2021/07/16 07:33:37;;;;;;;17.70;10.38;;;743.10;1459.20;;;;;;5096481;28;20115;-55
2021/07/16 07:36:03;;;;;;;14.38;10.15;;;743.10;1459.20;;;;;;5096327;28;20111;-59
2021/07/16 07:38:32;;;;;;;13.82;9.57;;;743.10;1459.20;;;;;;5096417;28;20379;-60
2021/07/16 07:40:59;;;;;;;16.05;9.73;;;743.20;1433.60;;;;;;5096560;28;20372;-59
2021/07/16 07:43:25;;;;;;;12.45;9.63;;;743.20;1433.60;;;;;;5096284;28;20020;-59
2021/07/16 07:45:51;;;;;;;12.35;7.93;;;768.00;1433.60;;;;;;5096517;28;20028;-60
2021/07/16 07:48:17;;;;;;;14.95;9.15;;;768.00;1433.60;;;;;;5095772;28;20032;-55
2021/07/16 07:50:43;;;;;;;17.48;9.73;;;768.00;1433.60;;;;;;5096343;28;20024;-59
2021/07/16 07:53:09;;;;;;;10.80;8.52;;;743.20;1433.60;;;;;;5096043;28;20024;-59
2021/07/16 07:55:35;;;;;;;13.65;8.93;;;743.30;1459.20;;;;;;5096000;28;20024;-59
2021/07/16 07:58:01;;;;;;;10.63;7.40;;;768.00;1433.60;;;;;;5096252;28;20023;-60
2021/07/16 08:00:27;;;;;;;13.95;8.60;;;768.00;1433.60;;;;;;5096164;28;20032;-54
2021/07/16 08:02:54;;;;;;;13.10;8.65;;;768.00;1433.60;;;;;;5095898;28;20426;-60
2021/07/16 08:05:20;;;;;;;11.52;8.02;;;768.10;1433.60;;;;;;5096070;28;20046;-53
2021/07/16 08:07:46;;;;;;;31.70;27.67;;;768.20;1433.60;;;;;;5096510;28;20028;-60
2021/07/16 08:10:15;;;;;;;12.65;9.05;;;768.20;1433.60;;;;;;5095523;28;20093;-59
2021/07/16 08:12:42;;;;;;;13.88;8.82;;;768.20;1408.00;;;;;;5095939;28;20024;-57
2021/07/16 08:15:11;;;;;;;11.35;8.25;;;768.10;1433.60;;;;;;5095673;28;20074;-52
2021/07/16 08:17:37;;;;;;;10.90;8.13;;;768.10;1408.00;;;;;;5094869;28;20072;-57
2021/07/16 08:20:08;;;;;;;12.18;8.50;;;768.10;1408.00;;;;;;5095468;28;20036;-60
2021/07/16 08:22:35;;;;;;;11.15;7.15;;;768.20;1408.00;;;;;;5095498;28;20020;-60
2021/07/16 08:25:01;;;;;;;9.45;7.55;;;768.20;1408.00;;;;;;5095386;28;20036;-60
2021/07/16 08:27:27;;;;;;;15.32;8.18;;;768.20;1408.00;;;;;;5095181;28;20064;-59
2021/07/16 08:29:53;;;;;;;20.92;8.55;;;768.20;1408.00;;;;;;5095347;28;20051;-59
2021/07/16 08:32:19;;;;;;;12.95;8.00;;;768.20;1382.40;;;;;;5095247;28;20055;-59
2021/07/16 08:34:45;;;;;;;12.15;7.82;;;768.20;1382.40;;;;;;5095557;28;20024;-59
2021/07/16 08:37:11;;;;;;;12.32;7.93;;;768.20;1408.00;;;;;;5095191;28;20025;-59
2021/07/16 08:39:38;;;;;;;11.40;7.93;;;768.30;1408.00;;;;;;5095208;28;20028;-58
2021/07/16 08:42:04;;;;;;;13.05;7.70;;;768.30;1382.40;;;;;;5095103;28;20032;-60
2021/07/16 08:44:30;;;;;;;16.65;8.23;;;768.30;1408.00;;;;;;5095041;28;20031;-60
2021/07/16 08:46:56;;;;;;;12.52;8.30;;;768.30;1382.40;;;;;;5095291;28;20059;-60
2021/07/16 08:49:24;;;;;;;14.05;7.95;;;768.30;1382.40;;;;;;5094928;28;20059;-53
2021/07/16 08:51:50;;;;;;;13.23;8.88;;;768.50;1382.40;;;;;;5094907;28;20020;-59
2021/07/16 08:54:18;;;;;;;11.45;8.02;;;768.50;1382.40;;;;;;5095178;28;20357;-60
2021/07/16 08:56:45;;;;;;;12.77;7.25;;;768.50;1382.40;;;;;;5094836;28;20024;-59
2021/07/16 08:59:14;;;;;;;12.75;8.63;;;768.50;1382.40;;;;;;5094546;28;20058;-54
2021/07/16 09:01:42;;;;;;;11.45;8.45;;;768.50;1382.40;;;;;;5094231;28;20024;-57
2021/07/16 09:04:09;;;;;;;12.77;7.60;;;768.60;1382.40;;;;;;5094392;28;20024;-59
2021/07/16 09:06:46;;;;;;;14.32;7.88;;;768.60;1382.40;;;;;;5094159;28;20020;-59
2021/07/16 09:09:13;;;;;;;11.00;7.75;;;768.70;1382.40;;;;;;5094329;28;20071;-56
2021/07/16 09:11:41;;;;;;;11.55;8.00;;;768.70;1382.40;;;;;;5094080;28;20019;-59
2021/07/16 09:14:07;;;;;;;10.98;7.78;;;768.70;1382.40;;;;;;5094115;28;20047;-53
2021/07/16 09:16:33;;;;;;;12.48;8.02;;;768.70;1382.40;;;;;;5093286;28;20103;-59
2021/07/16 09:18:59;;;;;;;33.88;8.60;;;768.70;1382.40;;;;;;5092992;28;20104;-53
2021/07/16 09:21:25;;;;;;;32.38;8.52;;;768.70;1382.40;;;;;;5093265;28;20107;-59
2021/07/16 09:23:51;;;;;;;10.73;7.55;;;768.80;1382.40;;;;;;5092820;28;20472;-59
2021/07/16 09:26:27;;;;;;;30.88;9.23;;;768.70;1356.80;;;;;;5092856;28;20040;-57
2021/07/16 09:28:56;;;;;;;17.77;7.93;;;768.70;1356.80;;;;;;5094125;28;20092;-59
2021/07/16 09:31:30;;;;;;;35.95;9.10;;;768.70;1356.80;;;;;;5094332;28;20043;-55
2021/07/16 09:34:01;;;;;;;22.25;9.30;;;768.70;1356.80;;;;;;5094442;28;20103;-59
2021/07/16 09:36:38;;;;;;;18.60;8.18;;;768.70;1356.80;;;;;;5094244;28;20032;-54
2021/07/16 09:39:09;;;;;;;8.88;7.22;;;768.70;1331.20;;;;;;5094286;28;20028;-59
2021/07/16 09:41:56;;;;;;;15.38;7.07;;;768.60;1331.20;;;;;;5094054;28;20392;-59
2021/07/16 09:44:32;;;;;;;14.38;7.78;;;768.60;1356.80;;;;;;5093929;28;20012;-59
2021/07/16 09:47:20;;;;;;;9.93;7.10;;;768.70;1331.20;;;;;;5094175;28;20024;-58
2021/07/16 09:50:04;;;;;;;16.30;9.02;;;768.70;1331.20;;;;;;5094199;28;20028;-59
2021/07/16 09:52:30;;;;;;;9.43;7.75;;;768.70;1331.20;;;;;;5093831;28;20466;-59
2021/07/16 09:55:29;;;;;;;13.02;7.40;;;768.70;1305.60;;;;;;5094170;28;20051;-58
2021/07/16 09:57:55;;;;;;;13.77;7.70;;;768.80;1331.20;;;;;;5082995;28;20036;-52
2021/07/16 10:00:26;;;;;;;9.48;7.18;;;768.80;1305.60;;;;;;5094043;28;20028;-59
2021/07/16 10:02:54;;;;;;;9.70;7.13;;;768.80;1254.40;;;;;;5093683;28;20023;-58
2021/07/16 10:05:21;;;;;;;18.75;6.60;;;768.80;1305.60;;;;;;5093735;28;20024;-58
2021/07/16 10:07:48;;;;;;;12.57;7.32;;;768.80;1254.40;;;;;;5093527;28;20044;-59
2021/07/16 10:10:16;;;;;;;16.30;6.85;;;768.70;1280.00;;;;;;5093920;28;20056;-59
2021/07/16 10:12:44;;;;;;;12.95;6.68;;;768.70;1254.40;;;;;;5093904;28;20020;-59
2021/07/16 10:15:14;;;;;;;14.80;7.20;;;768.70;1280.00;;;;;;5093856;28;20020;-58
2021/07/16 10:17:41;;;;;;;10.73;6.57;;;768.70;1280.00;;;;;;5093553;28;20380;-58
2021/07/16 10:20:13;;;;;;;11.80;6.50;;;768.70;1280.00;;;;;;5093796;28;20119;-56
2021/07/16 10:22:41;;;;;;;9.93;6.80;;;768.80;1280.00;;;;;;5093795;28;20038;-58
2021/07/16 10:25:09;;;;;;;8.40;6.03;;;768.80;1280.00;;;;;;5093742;28;20043;-59
2021/07/16 10:27:36;;;;;;;10.93;5.75;;;768.80;1203.20;;;;;;5093158;28;20131;-59
2021/07/16 10:30:06;;;;;;;13.00;6.50;;;768.80;1203.20;;;;;;5092828;28;20047;-58
2021/07/16 10:32:55;;;;;;;9.10;6.90;;;768.90;1254.40;;;;;;5093275;28;20024;-59
2021/07/16 10:35:22;;;;;;;13.68;6.70;;;793.60;1280.00;;;;;;5092921;28;20028;-59
2021/07/16 10:37:51;;;;;;;9.55;6.72;;;793.60;1280.00;;;;;;5093205;28;20032;-59
2021/07/16 10:40:43;;;;;;;9.35;6.72;;;793.70;1280.00;;;;;;5094954;28;20023;-54
2021/07/16 10:43:27;;;;;;;8.23;6.22;;;793.70;1280.00;;;;;;5094809;28;20071;-58
2021/07/16 10:45:57;;;;;;;10.95;6.15;;;793.80;1280.00;;;;;;5096885;28;20028;-58
2021/07/16 10:48:33;;;;;;;12.10;6.57;;;793.70;1228.80;;;;;;5096902;28;20043;-59
2021/07/16 10:51:01;;;;;;;10.35;6.30;;;793.80;1228.80;;;;;;5097161;28;20107;-59
2021/07/16 10:53:27;;;;;;;12.00;6.00;;;793.80;1177.60;;;;;;5096635;28;20408;-57
2021/07/16 10:55:56;;;;;;;8.73;5.57;;;793.80;1228.80;;;;;;5096630;28;20409;-58
2021/07/16 10:58:38;;;;;;;7.68;5.40;;;793.80;1177.60;;;;;;5096469;28;20381;-54
2021/07/16 11:01:05;;;;;;;10.25;5.95;;;793.80;1177.60;;;;;;5095034;28;20041;-52
2021/07/16 11:03:40;;;;;;;9.38;5.20;;;793.80;1203.20;;;;;;5097017;28;20036;-56
2021/07/16 11:06:07;;;;;;;13.00;5.70;;;793.90;1126.40;;;;;;5097274;28;20093;-60
2021/07/16 11:08:39;;;;;;;9.38;5.50;;;793.90;1177.60;;;;;;5096839;28;20028;-60
2021/07/16 11:11:08;;;;;;;9.85;6.22;;;793.90;1152.00;;;;;;5097166;28;20111;-59
2021/07/16 11:13:53;;;;;;;10.10;5.40;;;794.00;1228.80;;;;;;5096876;28;20484;-59
2021/07/16 11:16:25;;;;;;;7.95;5.75;;;794.00;1152.00;;;;;;5097104;28;20031;-59
2021/07/16 11:19:11;;;;;;;9.23;5.72;;;794.10;1203.20;;;;;;5096295;28;20028;-53
2021/07/16 11:21:40;;;;;;;7.15;4.97;;;794.10;1203.20;;;;;;5083646;28;20020;-57
2021/07/16 11:24:18;;;;;;;10.00;5.80;;;794.10;1177.60;;;;;;5096422;28;20020;-57
2021/07/16 11:26:52;;;;;;;9.75;6.03;;;794.10;1152.00;;;;;;5096132;28;20097;-51
2021/07/16 11:29:19;;;;;;;9.45;5.57;;;794.10;1203.20;;;;;;5094614;28;20380;-59
2021/07/16 11:31:45;;;;;;;11.88;5.55;;;794.10;1177.60;;;;;;5096585;28;20028;-59
2021/07/16 11:34:16;;;;;;;8.80;4.72;;;794.10;1177.60;;;;;;5096205;28;20376;-58
2021/07/16 11:36:52;;;;;;;12.68;5.30;;;794.10;1126.40;;;;;;5096411;28;20069;-58
2021/07/16 11:39:36;;;;;;;11.05;4.82;;;794.10;1126.40;;;;;;5096367;28;20161;-50
2021/07/16 11:42:07;;;;;;;9.27;4.90;;;794.10;1177.60;;;;;;5095826;28;20491;-58
2021/07/16 11:44:38;;;;;;;13.55;5.43;;;794.10;1126.40;;;;;;5096015;28;20055;-58
2021/07/16 11:47:33;;;;;;;8.07;4.57;;;794.10;1152.00;;;;;;5095961;28;20027;-59
2021/07/16 11:50:01;;;;;;;9.00;5.05;;;794.10;1126.40;;;;;;5013853;28;20034;-53
2021/07/16 11:52:31;;;;;;;8.25;4.57;;;794.10;1126.40;;;;;;5013937;28;20030;-59
2021/07/16 11:55:15;;;;;;;10.13;5.00;;;794.20;1126.40;;;;;;5014274;28;20034;-54
2021/07/16 11:57:57;;;;;;;9.75;5.03;;;794.30;1152.00;;;;;;5014309;28;20113;-59
2021/07/16 12:00:32;;;;;;;10.52;5.15;;;794.40;1126.40;;;;;;5013506;28;20044;-57
2021/07/16 12:03:15;;;;;;;11.10;5.05;;;794.40;1152.00;;;;;;5013851;28;20030;-58
2021/07/16 12:05:55;;;;;;;12.07;5.32;;;794.50;1100.80;;;;;;5013888;28;20044;-60
2021/07/16 12:08:26;;;;;;;14.13;5.38;;;794.50;1152.00;;;;;;5013732;28;20592;-60
2021/07/16 12:11:08;;;;;;;9.48;4.78;;;819.20;1152.00;;;;;;5013536;28;20029;-59
2021/07/16 12:13:35;;;;;;;11.25;4.97;;;794.50;1126.40;;;;;;4994174;28;20049;-60